createdAt,value
2023-03-10T00:01:14.058Z,-2.90
2023-03-10T00:03:43.805Z,-2.90
2023-03-10T00:06:14.741Z,-2.90
2023-03-10T00:08:43.439Z,-2.90
2023-03-10T00:11:11.763Z,-2.90
2023-03-10T00:13:40.326Z,-2.90
2023-03-10T00:16:09.555Z,-2.90
2023-03-10T00:18:37.801Z,-2.80
2023-03-10T00:21:07.701Z,-2.80
2023-03-10T00:23:37.519Z,-2.80
2023-03-10T00:26:06.015Z,-2.80
2023-03-10T00:28:34.711Z,-2.70
2023-03-10T00:31:05.135Z,-2.70
2023-03-10T00:33:35.756Z,-2.70
2023-03-10T00:36:08.455Z,-2.70
2023-03-10T00:38:37.651Z,-2.70
2023-03-10T00:41:07.942Z,-2.70
2023-03-10T00:43:36.639Z,-2.80
2023-03-10T00:46:05.683Z,-2.70
2023-03-10T00:48:34.730Z,-2.70
2023-03-10T00:51:04.390Z,-2.80
2023-03-10T00:53:36.159Z,-2.90
2023-03-10T00:56:07.950Z,-2.90
2023-03-10T00:58:36.904Z,-2.90
2023-03-10T01:01:12.294Z,-2.90
2023-03-10T01:03:40.589Z,-3.00
2023-03-10T01:06:08.910Z,-3.00
2023-03-10T01:08:38.936Z,-3.00
2023-03-10T01:11:07.904Z,-3.00
2023-03-10T01:13:36.320Z,-3.00
2023-03-10T01:16:05.112Z,-2.90
2023-03-10T01:18:33.435Z,-2.80
2023-03-10T01:21:01.634Z,-2.70
2023-03-10T01:23:30.075Z,-2.70
2023-03-10T01:25:59.731Z,-2.80
2023-03-10T01:28:27.897Z,-2.80
2023-03-10T01:30:56.164Z,-2.80
2023-03-10T01:33:24.445Z,-2.80
2023-03-10T01:35:52.657Z,-2.80
2023-03-10T01:38:21.275Z,-2.90
2023-03-10T01:40:51.624Z,-2.90
2023-03-10T01:43:30.241Z,-2.80
2023-03-10T01:46:40.439Z,-2.80
2023-03-10T01:49:19.100Z,-2.80
2023-03-10T01:51:51.529Z,-2.70
2023-03-10T01:54:23.811Z,-2.70
2023-03-10T01:56:54.496Z,-2.70
2023-03-10T01:59:26.175Z,-2.80
2023-03-10T02:01:54.635Z,-2.70
2023-03-10T02:04:28.878Z,-2.70
2023-03-10T02:06:58.769Z,-2.80
2023-03-10T02:09:27.844Z,-2.80
2023-03-10T02:11:58.882Z,-2.80
2023-03-10T02:14:29.025Z,-2.70
2023-03-10T02:16:57.516Z,-2.70
2023-03-10T02:19:44.817Z,-2.70
2023-03-10T02:22:15.594Z,-2.70
2023-03-10T02:24:51.864Z,-2.70
2023-03-10T02:27:25.769Z,-2.70
2023-03-10T02:30:00.359Z,-2.70
2023-03-10T02:32:31.110Z,-2.70
2023-03-10T02:34:59.934Z,-2.70
2023-03-10T02:37:30.686Z,-2.70
2023-03-10T02:39:59.913Z,-2.70
2023-03-10T02:42:34.445Z,-2.70
2023-03-10T02:45:04.460Z,-2.70
2023-03-10T02:47:32.738Z,-2.70
2023-03-10T02:50:01.336Z,-2.70
2023-03-10T02:52:39.330Z,-2.70
2023-03-10T02:55:08.804Z,-2.70
2023-03-10T02:57:38.393Z,-2.70
2023-03-10T03:00:08.906Z,-2.70
2023-03-10T03:02:37.147Z,-2.70
2023-03-10T03:05:05.815Z,-2.70
2023-03-10T03:07:34.232Z,-2.70
2023-03-10T03:10:02.738Z,-2.70
2023-03-10T03:12:30.848Z,-2.70
2023-03-10T03:15:00.439Z,-2.70
2023-03-10T03:17:29.673Z,-2.60
2023-03-10T03:19:58.040Z,-2.60
2023-03-10T03:22:26.294Z,-2.70
2023-03-10T03:24:54.594Z,-2.70
2023-03-10T03:27:22.745Z,-2.70
2023-03-10T03:29:50.915Z,-2.80
2023-03-10T03:32:20.946Z,-2.80
2023-03-10T03:34:49.178Z,-2.80
2023-03-10T03:37:17.783Z,-2.80
2023-03-10T03:39:46.129Z,-2.70
2023-03-10T03:42:14.416Z,-2.70
2023-03-10T03:44:43.578Z,-2.70
2023-03-10T03:47:12.451Z,-2.70
2023-03-10T03:49:42.292Z,-2.80
2023-03-10T03:52:10.504Z,-2.80
2023-03-10T03:54:39.172Z,-2.80
2023-03-10T03:57:07.378Z,-2.80
2023-03-10T03:59:36.245Z,-2.80
2023-03-10T04:02:04.911Z,-2.70
2023-03-10T04:04:33.144Z,-2.80
2023-03-10T04:07:03.659Z,-2.80
2023-03-10T04:09:32.690Z,-2.80
2023-03-10T04:12:01.120Z,-2.80
2023-03-10T04:14:29.324Z,-2.80
2023-03-10T04:16:57.898Z,-2.80
2023-03-10T04:19:26.119Z,-2.70
2023-03-10T04:21:54.260Z,-2.70
2023-03-10T04:24:24.526Z,-2.70
2023-03-10T04:26:52.625Z,-2.70
2023-03-10T04:29:24.426Z,-2.80
2023-03-10T04:32:04.808Z,-2.80
2023-03-10T04:34:34.259Z,-2.70
2023-03-10T04:37:02.738Z,-2.70
2023-03-10T04:39:32.360Z,-2.70
2023-03-10T04:42:00.687Z,-2.70
2023-03-10T04:44:31.357Z,-2.70
2023-03-10T04:46:59.854Z,-2.70
2023-03-10T04:49:28.122Z,-2.70
2023-03-10T04:51:56.913Z,-2.70
2023-03-10T04:54:25.073Z,-2.70
2023-03-10T04:56:54.603Z,-2.70
2023-03-10T04:59:22.934Z,-2.70
2023-03-10T05:01:52.428Z,-2.70
2023-03-10T05:04:20.959Z,-2.70
2023-03-10T05:06:52.075Z,-2.60
2023-03-10T05:09:20.953Z,-2.70
2023-03-10T05:11:49.327Z,-2.70
2023-03-10T05:14:19.042Z,-2.70
2023-03-10T05:16:49.249Z,-2.70
2023-03-10T05:19:17.505Z,-2.70
2023-03-10T05:21:46.202Z,-2.70
2023-03-10T05:24:14.515Z,-2.70
2023-03-10T05:26:42.960Z,-2.60
2023-03-10T05:29:11.260Z,-2.60
2023-03-10T05:31:41.133Z,-2.60
2023-03-10T05:34:09.387Z,-2.70
2023-03-10T05:36:37.727Z,-2.70
2023-03-10T05:39:07.340Z,-2.70
2023-03-10T05:41:36.509Z,-2.70
2023-03-10T05:44:04.923Z,-2.60
2023-03-10T05:46:33.237Z,-2.70
2023-03-10T05:49:02.922Z,-2.70
2023-03-10T05:51:31.457Z,-2.70
2023-03-10T05:53:59.670Z,-2.70
2023-03-10T05:56:27.885Z,-2.60
2023-03-10T05:58:56.137Z,-2.60
2023-03-10T06:01:24.439Z,-2.60
2023-03-10T06:03:52.669Z,-2.60
2023-03-10T06:06:22.665Z,-2.60
2023-03-10T06:08:50.758Z,-2.60
2023-03-10T06:11:19.480Z,-2.50
2023-03-10T06:13:47.763Z,-2.40
2023-03-10T06:16:15.926Z,-2.40
2023-03-10T06:18:44.424Z,-2.30
2023-03-10T06:21:14.939Z,-2.30
2023-03-10T06:23:44.546Z,-2.20
2023-03-10T06:26:15.047Z,-2.20
2023-03-10T06:28:45.635Z,-2.20
2023-03-10T06:31:16.525Z,-2.20
2023-03-10T06:33:45.448Z,-2.10
2023-03-10T06:36:14.677Z,-2.00
2023-03-10T06:38:44.414Z,-2.00
2023-03-10T06:41:12.989Z,-2.00
2023-03-10T06:43:41.663Z,-1.90
2023-03-10T06:46:11.754Z,-1.90
2023-03-10T06:48:41.002Z,-1.80
2023-03-10T06:51:11.167Z,-1.80
2023-03-10T06:53:39.365Z,-1.70
2023-03-10T06:56:12.274Z,-1.70
2023-03-10T06:58:42.053Z,-1.70
2023-03-10T07:01:10.849Z,-1.60
2023-03-10T07:03:39.127Z,-1.50
2023-03-10T07:06:07.628Z,-1.40
2023-03-10T07:08:36.298Z,-1.30
2023-03-10T07:11:04.565Z,-1.20
2023-03-10T07:13:34.511Z,-1.00
2023-03-10T07:16:02.675Z,-1.00
2023-03-10T07:18:30.812Z,-0.80
2023-03-10T07:21:00.107Z,-0.70
2023-03-10T07:23:28.453Z,-0.70
2023-03-10T07:25:58.607Z,-0.60
2023-03-10T07:28:28.195Z,-0.50
2023-03-10T07:30:57.829Z,-0.40
2023-03-10T07:33:26.166Z,-0.40
2023-03-10T07:35:54.611Z,-0.30
2023-03-10T07:38:22.908Z,-0.20
2023-03-10T07:40:51.184Z,-0.10
2023-03-10T07:43:19.480Z,0.00
2023-03-10T07:45:47.729Z,0.00
2023-03-10T07:48:17.394Z,0.00
2023-03-10T07:50:45.695Z,0.00
2023-03-10T07:53:13.880Z,0.00
2023-03-10T07:55:42.106Z,0.10
2023-03-10T07:58:10.609Z,0.20
2023-03-10T08:00:38.750Z,0.60
2023-03-10T08:03:06.962Z,1.10
2023-03-10T08:05:41.512Z,1.40
2023-03-10T08:08:11.995Z,1.60
2023-03-10T08:10:40.437Z,1.80
2023-03-10T08:13:08.622Z,2.10
2023-03-10T08:15:36.892Z,1.90
2023-03-10T08:18:05.657Z,1.60
2023-03-10T08:20:33.893Z,1.50
2023-03-10T08:23:03.979Z,1.20
2023-03-10T08:25:32.725Z,1.10
2023-03-10T08:28:00.912Z,1.20
2023-03-10T08:30:29.109Z,1.30
2023-03-10T08:32:57.442Z,1.30
2023-03-10T08:35:26.238Z,1.50
2023-03-10T08:37:55.456Z,1.80
2023-03-10T08:40:25.928Z,1.80
2023-03-10T08:42:54.452Z,1.80
2023-03-10T08:45:22.842Z,1.90
2023-03-10T08:47:51.518Z,2.30
2023-03-10T08:50:19.796Z,2.80
2023-03-10T08:52:48.047Z,3.30
2023-03-10T08:55:16.607Z,3.50
2023-03-10T08:57:46.262Z,3.30
2023-03-10T09:00:17.278Z,3.60
2023-03-10T09:02:45.945Z,4.40
2023-03-10T09:05:14.389Z,4.80
2023-03-10T09:07:42.548Z,5.60
2023-03-10T09:10:11.987Z,6.10
2023-03-10T09:12:40.539Z,6.80
2023-03-10T09:15:11.097Z,7.80
2023-03-10T09:17:40.880Z,8.40
2023-03-10T09:20:10.892Z,9.60
2023-03-10T09:22:39.084Z,10.60
2023-03-10T09:25:08.332Z,10.80
2023-03-10T09:27:36.566Z,10.20
2023-03-10T09:30:05.649Z,9.60
2023-03-10T09:32:35.284Z,8.80
2023-03-10T09:35:04.094Z,7.80
2023-03-10T09:37:32.831Z,7.30
2023-03-10T09:40:01.031Z,7.00
2023-03-10T09:42:38.508Z,6.70
2023-03-10T09:45:28.114Z,6.50
2023-03-10T09:48:13.471Z,6.40
2023-03-10T09:50:44.927Z,6.10
2023-03-10T09:53:30.702Z,8.00
2023-03-10T09:55:59.106Z,9.60
2023-03-10T09:58:35.827Z,10.90
2023-03-10T10:01:06.598Z,12.70
2023-03-10T10:03:52.578Z,13.20
2023-03-10T10:06:27.969Z,12.90
2023-03-10T10:09:04.721Z,12.20
2023-03-10T10:11:35.114Z,11.40
2023-03-10T10:14:33.044Z,9.90
2023-03-10T10:17:09.011Z,9.40
2023-03-10T10:19:41.516Z,9.30
2023-03-10T10:22:16.611Z,9.80
2023-03-10T10:24:59.642Z,9.30
2023-03-10T10:27:28.283Z,10.40
2023-03-10T10:29:56.560Z,10.50
2023-03-10T10:32:24.808Z,9.80
2023-03-10T10:35:14.849Z,8.30
2023-03-10T10:37:43.829Z,7.40
2023-03-10T10:40:24.903Z,6.80
2023-03-10T10:42:54.603Z,8.20
2023-03-10T10:45:30.236Z,10.30
2023-03-10T10:47:58.716Z,11.20
2023-03-10T10:50:30.120Z,11.10
2023-03-10T10:53:21.238Z,9.70
2023-03-10T10:56:01.475Z,8.50
2023-03-10T10:58:34.067Z,7.40
2023-03-10T11:01:04.160Z,6.70
2023-03-10T11:03:34.869Z,6.10
2023-03-10T11:06:15.547Z,5.20
2023-03-10T11:08:50.750Z,4.90
2023-03-10T11:11:27.090Z,4.50
2023-03-10T11:14:21.227Z,4.40
2023-03-10T11:16:55.232Z,4.60
2023-03-10T11:19:29.456Z,4.40
2023-03-10T11:22:05.621Z,4.10
2023-03-10T11:24:41.492Z,4.00
2023-03-10T11:27:17.265Z,4.10
2023-03-10T11:29:58.211Z,4.50
2023-03-10T11:32:33.627Z,5.00
2023-03-10T11:35:15.465Z,5.50
2023-03-10T11:37:52.279Z,5.60
2023-03-10T11:40:28.036Z,5.20
2023-03-10T11:43:02.450Z,5.00
2023-03-10T11:45:35.522Z,5.30
2023-03-10T11:48:25.738Z,5.40
2023-03-10T11:50:56.001Z,5.40
2023-03-10T11:53:33.470Z,5.70
2023-03-10T11:56:03.293Z,5.80
2023-03-10T11:58:42.787Z,5.70
2023-03-10T12:01:14.773Z,5.60
2023-03-10T12:03:50.432Z,5.70
2023-03-10T12:06:21.970Z,5.70
2023-03-10T12:08:56.727Z,5.50
2023-03-10T12:11:28.308Z,5.20
2023-03-10T12:14:00.869Z,5.10
2023-03-10T12:16:32.037Z,4.90
2023-03-10T12:19:00.641Z,4.80
2023-03-10T12:21:30.833Z,4.80
2023-03-10T12:24:02.215Z,4.90
2023-03-10T12:27:00.260Z,5.10
2023-03-10T12:29:40.037Z,5.50
2023-03-10T12:32:47.207Z,5.50
2023-03-10T12:35:44.644Z,5.40
2023-03-10T12:38:32.711Z,5.20
2023-03-10T12:41:03.025Z,5.30
2023-03-10T12:43:55.454Z,5.10
2023-03-10T12:46:40.686Z,4.50
2023-03-10T12:49:19.218Z,4.20
2023-03-10T12:51:50.597Z,3.90
2023-03-10T12:54:42.348Z,3.80
2023-03-10T12:57:17.345Z,3.50
2023-03-10T12:59:53.688Z,3.10
2023-03-10T13:02:33.860Z,2.80
2023-03-10T13:05:07.881Z,2.50
2023-03-10T13:07:36.870Z,2.20
2023-03-10T13:10:06.456Z,1.90
2023-03-10T13:12:46.434Z,1.80
2023-03-10T13:15:24.888Z,1.80
2023-03-10T13:17:55.837Z,1.50
2023-03-10T13:20:24.974Z,1.20
2023-03-10T13:22:57.813Z,1.00
2023-03-10T13:25:27.071Z,1.00
2023-03-10T13:27:57.616Z,1.20
2023-03-10T13:30:28.344Z,1.20
2023-03-10T13:32:58.536Z,1.20
2023-03-10T13:35:34.005Z,1.20
2023-03-10T13:38:07.621Z,1.20
2023-03-10T13:40:37.680Z,1.30
2023-03-10T13:43:19.609Z,1.30
2023-03-10T13:45:54.787Z,1.40
2023-03-10T13:48:25.064Z,1.50
2023-03-10T13:51:06.450Z,1.60
2023-03-10T13:53:34.797Z,1.90
2023-03-10T13:56:16.335Z,2.10
2023-03-10T13:58:47.042Z,2.30
2023-03-10T14:01:22.539Z,2.50
2023-03-10T14:03:53.618Z,2.70
2023-03-10T14:06:22.994Z,2.80
2023-03-10T14:08:52.586Z,3.10
2023-03-10T14:11:42.230Z,3.30
2023-03-10T14:14:15.287Z,3.40
2023-03-10T14:16:54.442Z,3.40
2023-03-10T14:19:52.824Z,3.20
2023-03-10T14:22:31.450Z,3.00
2023-03-10T14:25:01.445Z,2.90
2023-03-10T14:27:29.778Z,2.80
2023-03-10T14:30:03.651Z,2.70
2023-03-10T14:32:32.324Z,2.80
2023-03-10T14:35:00.649Z,2.80
2023-03-10T14:37:28.978Z,2.60
2023-03-10T14:39:57.709Z,2.50
2023-03-10T14:42:30.835Z,2.50
2023-03-10T14:45:06.643Z,2.40
2023-03-10T14:47:35.817Z,2.40
2023-03-10T14:50:04.712Z,2.40
2023-03-10T14:52:32.854Z,2.40
2023-03-10T14:55:01.089Z,2.30
2023-03-10T14:57:29.666Z,2.30
2023-03-10T14:59:57.861Z,2.30
2023-03-10T15:02:29.344Z,2.20
2023-03-10T15:04:57.812Z,2.20
2023-03-10T15:07:26.116Z,2.20
2023-03-10T15:10:08.859Z,2.40
2023-03-10T15:12:39.222Z,2.50
2023-03-10T15:15:09.129Z,2.50
2023-03-10T15:17:38.753Z,2.50
2023-03-10T15:20:08.516Z,2.60
2023-03-10T15:22:37.138Z,2.70
2023-03-10T15:25:06.283Z,3.00
2023-03-10T15:27:34.431Z,3.10
2023-03-10T15:30:02.713Z,2.90
2023-03-10T15:32:31.332Z,2.60
2023-03-10T15:35:00.849Z,2.30
2023-03-10T15:37:28.998Z,2.20
2023-03-10T15:39:57.098Z,2.10
2023-03-10T15:42:25.363Z,2.10
2023-03-10T15:44:54.214Z,2.20
2023-03-10T15:47:22.849Z,2.30
2023-03-10T15:49:51.220Z,2.40
2023-03-10T15:52:21.188Z,2.30
2023-03-10T15:54:49.459Z,2.10
2023-03-10T15:57:17.619Z,2.00
2023-03-10T15:59:45.832Z,1.70
2023-03-10T16:02:15.344Z,1.40
2023-03-10T16:04:44.228Z,1.10
2023-03-10T16:07:13.220Z,0.90
2023-03-10T16:09:43.206Z,0.70
2023-03-10T16:12:11.525Z,0.50
2023-03-10T16:14:39.871Z,0.30
2023-03-10T16:17:08.120Z,0.20
2023-03-10T16:19:36.225Z,0.10
2023-03-10T16:22:04.975Z,0.00
2023-03-10T16:24:33.203Z,-0.10
2023-03-10T16:27:02.824Z,-0.30
2023-03-10T16:29:31.455Z,-0.40
2023-03-10T16:31:59.741Z,-0.50
2023-03-10T16:34:28.332Z,-0.60
2023-03-10T16:36:57.339Z,-0.60
2023-03-10T16:39:25.856Z,-0.70
2023-03-10T16:41:54.076Z,-0.70
2023-03-10T16:44:24.233Z,-0.60
2023-03-10T16:46:52.586Z,-0.60
2023-03-10T16:49:21.069Z,-0.70
2023-03-10T16:51:50.286Z,-0.90
2023-03-10T16:54:20.915Z,-0.90
2023-03-10T16:56:50.978Z,-1.00
2023-03-10T16:59:21.266Z,-1.10
2023-03-10T17:01:51.246Z,-1.20
2023-03-10T17:04:20.073Z,-1.20
2023-03-10T17:06:49.177Z,-1.30
2023-03-10T17:09:18.954Z,-1.40
2023-03-10T17:11:49.658Z,-1.40
2023-03-10T17:14:19.800Z,-1.40
2023-03-10T17:16:50.937Z,-1.40
2023-03-10T17:19:24.320Z,-1.40
2023-03-10T17:21:52.714Z,-1.50
2023-03-10T17:24:22.210Z,-1.50
2023-03-10T17:26:50.868Z,-1.60
2023-03-10T17:29:19.311Z,-1.70
2023-03-10T17:31:51.751Z,-1.70
2023-03-10T17:34:21.766Z,-1.80
2023-03-10T17:36:51.659Z,-1.90
2023-03-10T17:39:22.316Z,-2.00
2023-03-10T17:41:51.301Z,-2.10
2023-03-10T17:44:19.785Z,-2.10
2023-03-10T17:46:48.692Z,-2.20
2023-03-10T17:49:18.242Z,-2.30
2023-03-10T17:51:48.004Z,-2.30
2023-03-10T17:54:18.377Z,-2.30
2023-03-10T17:56:46.770Z,-2.30
2023-03-10T17:59:16.247Z,-2.20
2023-03-10T18:01:45.976Z,-2.20
2023-03-10T18:04:14.831Z,-2.10
2023-03-10T18:06:43.635Z,-2.10
2023-03-10T18:09:15.880Z,-2.20
2023-03-10T18:11:44.010Z,-2.20
2023-03-10T18:14:12.360Z,-2.30
2023-03-10T18:16:41.830Z,-2.40
2023-03-10T18:19:11.535Z,-2.50
2023-03-10T18:21:39.969Z,-2.50
2023-03-10T18:24:08.903Z,-2.60
2023-03-10T18:26:38.433Z,-2.70
2023-03-10T18:29:06.811Z,-2.70
2023-03-10T18:31:35.624Z,-2.80
2023-03-10T18:34:04.583Z,-2.90
2023-03-10T18:36:34.087Z,-3.00
2023-03-10T18:39:04.036Z,-3.10
2023-03-10T18:41:32.812Z,-3.20
2023-03-10T18:44:03.035Z,-3.30
2023-03-10T18:46:31.351Z,-3.40
2023-03-10T18:48:59.540Z,-3.50
2023-03-10T18:51:29.168Z,-3.50
2023-03-10T18:53:57.662Z,-3.60
2023-03-10T18:56:28.965Z,-3.70
2023-03-10T18:58:57.493Z,-3.70
2023-03-10T19:01:27.423Z,-3.70
2023-03-10T19:03:55.639Z,-3.80
2023-03-10T19:06:23.931Z,-3.90
2023-03-10T19:08:53.642Z,-3.90
2023-03-10T19:11:24.469Z,-4.00
2023-03-10T19:13:53.276Z,-4.10
2023-03-10T19:16:22.462Z,-4.20
2023-03-10T19:18:52.108Z,-4.30
2023-03-10T19:21:22.815Z,-4.40
2023-03-10T19:23:51.671Z,-4.50
2023-03-10T19:26:20.191Z,-4.60
2023-03-10T19:28:48.683Z,-4.70
2023-03-10T19:31:17.603Z,-4.80
2023-03-10T19:33:45.862Z,-4.80
2023-03-10T19:36:16.306Z,-4.80
2023-03-10T19:38:45.709Z,-4.90
2023-03-10T19:41:15.889Z,-4.90
2023-03-10T19:43:44.375Z,-5.00
2023-03-10T19:46:15.199Z,-5.10
2023-03-10T19:48:44.658Z,-5.10
2023-03-10T19:51:21.289Z,-5.10
2023-03-10T19:53:51.591Z,-5.20
2023-03-10T19:56:20.582Z,-5.30
2023-03-10T19:58:49.838Z,-5.30
2023-03-10T20:01:22.782Z,-5.30
2023-03-10T20:03:51.593Z,-5.30
2023-03-10T20:06:21.610Z,-5.40
2023-03-10T20:08:49.865Z,-5.50
2023-03-10T20:11:19.637Z,-5.60
2023-03-10T20:13:48.145Z,-5.60
2023-03-10T20:16:17.929Z,-5.70
2023-03-10T20:18:46.150Z,-5.80
2023-03-10T20:21:15.046Z,-5.80
2023-03-10T20:23:47.655Z,-5.90
2023-03-10T20:26:17.389Z,-6.00
2023-03-10T20:28:46.731Z,-6.00
2023-03-10T20:31:18.114Z,-6.10
2023-03-10T20:33:46.752Z,-6.00
2023-03-10T20:36:16.044Z,-6.10
2023-03-10T20:38:46.754Z,-6.10
2023-03-10T20:41:17.313Z,-6.20
2023-03-10T20:43:46.455Z,-6.30
2023-03-10T20:46:15.222Z,-6.30
2023-03-10T20:48:43.601Z,-6.40
2023-03-10T20:51:14.982Z,-6.50
2023-03-10T20:53:43.544Z,-6.50
2023-03-10T20:56:14.376Z,-6.50
2023-03-10T20:58:42.742Z,-6.50
2023-03-10T21:01:16.628Z,-6.40
2023-03-10T21:03:44.827Z,-6.40
2023-03-10T21:06:12.951Z,-6.40
2023-03-10T21:08:41.555Z,-6.50
2023-03-10T21:11:12.367Z,-6.50
2023-03-10T21:13:41.186Z,-6.60
2023-03-10T21:16:10.047Z,-6.70
2023-03-10T21:18:38.916Z,-6.70
2023-03-10T21:21:09.486Z,-6.80
2023-03-10T21:23:39.306Z,-6.80
2023-03-10T21:26:13.285Z,-6.90
2023-03-10T21:28:41.954Z,-6.90
2023-03-10T21:31:10.478Z,-7.00
2023-03-10T21:33:38.631Z,-7.10
2023-03-10T21:36:07.719Z,-7.10
2023-03-10T21:38:37.746Z,-7.20
2023-03-10T21:41:06.426Z,-7.10
2023-03-10T21:43:36.659Z,-7.10
2023-03-10T21:46:05.069Z,-7.10
2023-03-10T21:48:33.311Z,-7.10
2023-03-10T21:51:01.990Z,-7.10
2023-03-10T21:53:30.301Z,-7.10
2023-03-10T21:56:00.635Z,-7.10
2023-03-10T21:58:29.206Z,-7.10
2023-03-10T22:00:58.843Z,-7.10
2023-03-10T22:03:27.432Z,-7.10
2023-03-10T22:05:55.888Z,-7.10
2023-03-10T22:08:24.116Z,-7.20
2023-03-10T22:10:52.292Z,-7.20
2023-03-10T22:13:20.683Z,-7.30
2023-03-10T22:15:49.104Z,-7.30
2023-03-10T22:18:18.700Z,-7.40
2023-03-10T22:20:47.103Z,-7.40
2023-03-10T22:23:15.349Z,-7.50
2023-03-10T22:25:43.447Z,-7.50
2023-03-10T22:28:12.072Z,-7.60
2023-03-10T22:30:40.954Z,-7.60
2023-03-10T22:33:09.175Z,-7.70
2023-03-10T22:35:39.156Z,-7.80
2023-03-10T22:38:07.843Z,-7.80
2023-03-10T22:40:36.256Z,-7.90
2023-03-10T22:43:04.606Z,-7.90
2023-03-10T22:45:33.813Z,-7.90
2023-03-10T22:48:03.902Z,-7.90
2023-03-10T22:50:35.149Z,-8.00
2023-03-10T22:53:06.964Z,-8.00
2023-03-10T22:55:36.074Z,-8.10
2023-03-10T22:58:06.074Z,-8.20
2023-03-10T23:00:34.984Z,-8.30
2023-03-10T23:03:04.892Z,-8.40
2023-03-10T23:05:33.267Z,-8.40
2023-03-10T23:08:01.771Z,-8.50
2023-03-10T23:10:34.033Z,-8.50
2023-03-10T23:13:03.881Z,-8.50
2023-03-10T23:15:34.721Z,-8.50
2023-03-10T23:18:03.287Z,-8.40
2023-03-10T23:20:34.862Z,-8.40
2023-03-10T23:23:04.306Z,-8.40
2023-03-10T23:25:36.137Z,-8.40
2023-03-10T23:28:05.889Z,-8.50
2023-03-10T23:30:34.712Z,-8.50
2023-03-10T23:33:03.027Z,-8.60
2023-03-10T23:35:32.907Z,-8.60
2023-03-10T23:38:02.143Z,-8.70
2023-03-10T23:40:31.964Z,-8.70
2023-03-10T23:43:03.034Z,-8.80
2023-03-10T23:45:33.107Z,-8.70
2023-03-10T23:48:04.746Z,-8.80
2023-03-10T23:50:35.996Z,-8.80
2023-03-10T23:53:05.043Z,-8.80
2023-03-10T23:55:35.912Z,-8.80
2023-03-10T23:58:06.281Z,-8.80
